Time;durP1;ratioP1;P1;durP2;ratioP2;P2;SDS_P1;SDS_P2;PMS_P1;PMS_P2;Temp;Humidity;BMP_temperature;BMP_pressure;BME280_temperature;BME280_humidity;BME280_pressure;Samples;Min_cycle;Max_cycle;Signal;HPM_P1;HPM_P2
2022/11/24 00:00:26;;;;;;;0.60;0.60;;;;;;;3.83;77.57;99748.25;5065249;28;20047;-72
2022/11/24 00:02:51;;;;;;;0.50;0.50;;;;;;;3.61;78.71;99744.63;5064872;28;20024;-72
2022/11/24 00:05:17;;;;;;;0.60;0.60;;;;;;;3.89;77.80;99750.88;5064014;28;20040;-72
2022/11/24 00:07:42;;;;;;;0.50;0.50;;;;;;;3.76;77.93;99749.03;5065148;28;20025;-73
2022/11/24 00:10:08;;;;;;;0.50;0.50;;;;;;;3.88;77.87;99749.16;5065115;28;20021;-73
2022/11/24 00:12:34;;;;;;;0.50;0.50;;;;;;;3.66;79.04;99740.41;5064925;28;20504;-72
2022/11/24 00:14:59;;;;;;;0.50;0.50;;;;;;;3.76;78.46;99731.06;5065277;28;20029;-78
2022/11/24 00:17:24;;;;;;;0.52;0.52;;;;;;;3.82;78.10;99739.69;5064823;28;20025;-72
2022/11/24 00:19:50;;;;;;;0.50;0.50;;;;;;;3.70;78.84;99740.44;5064664;28;20024;-72
2022/11/24 00:22:15;;;;;;;0.55;0.55;;;;;;;4.03;77.36;99727.00;5063448;28;20020;-73
2022/11/24 00:24:41;;;;;;;0.80;0.80;;;;;;;3.91;77.90;99738.91;5064806;28;20025;-72
2022/11/24 00:27:06;;;;;;;3.05;2.78;;;;;;;3.87;78.19;99734.59;5063422;28;20028;-74
2022/11/24 00:29:31;;;;;;;2.90;2.80;;;;;;;3.87;78.37;99737.16;5065012;28;20032;-72
2022/11/24 00:31:57;;;;;;;0.60;0.60;;;;;;;3.80;78.46;99753.38;5064654;28;20048;-74
2022/11/24 00:34:22;;;;;;;0.93;0.93;;;;;;;3.87;78.04;99736.28;5064786;28;20016;-73
2022/11/24 00:36:48;;;;;;;0.60;0.60;;;;;;;3.70;79.39;99737.88;5063511;28;20092;-73
2022/11/24 00:39:14;;;;;;;0.60;0.60;;;;;;;3.96;78.04;99742.34;5063524;28;20074;-74
2022/11/24 00:41:41;;;;;;;0.60;0.60;;;;;;;3.92;78.15;99750.91;5064735;28;20028;-74
2022/11/24 00:44:06;;;;;;;0.75;0.75;;;;;;;3.80;78.60;99750.78;5063771;28;20032;-73
2022/11/24 00:46:33;;;;;;;3.33;3.13;;;;;;;3.93;78.54;99734.63;5064902;28;20025;-77
2022/11/24 00:49:01;;;;;;;0.55;0.55;;;;;;;4.03;77.62;99733.00;5065362;28;20021;-76
2022/11/24 00:51:29;;;;;;;0.60;0.60;;;;;;;3.81;78.54;99747.38;5064638;28;20033;-72
2022/11/24 00:53:58;;;;;;;0.60;0.60;;;;;;;3.87;78.77;99752.56;5064624;28;20048;-73
2022/11/24 00:56:24;;;;;;;0.60;0.60;;;;;;;3.87;78.62;99756.81;5064703;28;20036;-75
2022/11/24 00:58:51;;;;;;;0.65;0.65;;;;;;;3.95;78.55;99753.50;5064523;28;20085;-73
2022/11/24 01:01:25;;;;;;;0.60;0.60;;;;;;;3.80;78.69;99755.94;5064602;28;20084;-72
2022/11/24 01:03:51;;;;;;;0.70;0.70;;;;;;;3.62;79.74;99746.34;5064668;28;20059;-74
2022/11/24 01:06:25;;;;;;;3.42;3.15;;;;;;;3.91;78.50;99753.44;5064959;28;20048;-73
2022/11/24 01:08:51;;;;;;;0.50;0.50;;;;;;;3.74;79.46;99746.44;5063158;28;20512;-74
2022/11/24 01:11:18;;;;;;;4.45;4.10;;;;;;;3.60;79.71;99759.16;5064459;28;20025;-73
2022/11/24 01:13:46;;;;;;;0.50;0.50;;;;;;;3.65;79.70;99747.25;5062974;28;20028;-73
2022/11/24 01:16:14;;;;;;;1.35;1.35;;;;;;;3.68;79.53;99746.41;5046076;28;20021;-73
2022/11/24 01:18:40;;;;;;;0.55;0.55;;;;;;;4.14;77.38;99748.50;5064384;28;20063;-75
2022/11/24 01:21:05;;;;;;;0.60;0.60;;;;;;;3.62;79.20;99742.09;5064088;28;20053;-76
2022/11/24 01:23:31;;;;;;;0.60;0.60;;;;;;;3.67;79.04;99749.81;5064389;28;20044;-73
2022/11/24 01:25:56;;;;;;;0.60;0.60;;;;;;;3.59;79.31;99740.31;5064029;28;20060;-73
2022/11/24 01:28:21;;;;;;;5.18;4.72;;;;;;;3.58;79.15;99736.03;5062526;28;20074;-73
2022/11/24 01:30:56;;;;;;;0.50;0.50;;;;;;;3.67;79.80;99754.97;5066377;28;20025;-74
2022/11/24 01:33:22;;;;;;;1.40;1.40;;;;;;;3.79;79.07;99743.91;5066828;28;20025;-75
2022/11/24 01:35:47;;;;;;;1.25;1.25;;;;;;;3.86;78.45;99755.13;5068217;28;20020;-76
2022/11/24 01:38:12;;;;;;;0.60;0.60;;;;;;;3.82;78.76;99762.78;5067805;28;20043;-73
2022/11/24 01:40:38;;;;;;;0.80;0.80;;;;;;;3.76;79.27;99764.44;5066693;28;20059;-74
2022/11/24 01:43:15;;;;;;;1.55;1.55;;;;;;;3.55;79.86;99759.13;5067825;28;20046;-73
2022/11/24 01:45:41;;;;;;;0.75;0.75;;;;;;;3.49;80.18;99756.50;5066769;28;20032;-73
2022/11/24 01:48:14;;;;;;;2.90;2.22;;;;;;;3.56;80.57;99758.25;5066353;28;20037;-73
2022/11/24 01:50:40;;;;;;;0.57;0.57;;;;;;;3.77;79.22;99767.00;5066667;28;20017;-73
2022/11/24 01:53:06;;;;;;;0.50;0.50;;;;;;;3.54;80.01;99762.53;5067319;28;20027;-73
2022/11/24 01:55:36;;;;;;;1.67;1.58;;;;;;;3.46;80.81;99752.19;5067868;28;20036;-74
2022/11/24 01:58:10;;;;;;;0.60;0.60;;;;;;;3.59;80.26;99754.88;5067809;28;20560;-74
2022/11/24 02:00:37;;;;;;;0.50;0.50;;;;;;;3.49;80.53;99750.50;5049722;28;20028;-73
2022/11/24 02:03:03;;;;;;;0.50;0.50;;;;;;;3.78;79.35;99762.75;5066171;28;20103;-72
2022/11/24 02:05:36;;;;;;;0.60;0.60;;;;;;;3.45;80.69;99750.47;5067703;28;20051;-73
2022/11/24 02:08:02;;;;;;;0.50;0.50;;;;;;;3.41;80.89;99755.53;5067521;28;20023;-73
2022/11/24 02:10:28;;;;;;;0.50;0.50;;;;;;;3.42;81.05;99750.44;5067747;28;20021;-72
2022/11/24 02:12:56;;;;;;;0.50;0.50;;;;;;;3.64;80.11;99750.66;5067573;28;20036;-73
2022/11/24 02:15:23;;;;;;;0.60;0.60;;;;;;;3.58;80.05;99756.59;5067427;28;20029;-74
2022/11/24 02:17:48;;;;;;;0.77;0.77;;;;;;;3.57;80.02;99754.00;5082404;28;20025;-73
2022/11/24 02:20:15;;;;;;;0.63;0.63;;;;;;;3.49;80.64;99755.63;5067226;28;20048;-73
2022/11/24 02:22:55;;;;;;;1.80;1.70;;;;;;;3.51;80.77;99759.06;5067214;28;20021;-73
2022/11/24 02:25:33;;;;;;;2.35;2.15;;;;;;;3.61;80.11;99758.31;5067286;28;20032;-73
2022/11/24 02:28:01;;;;;;;1.17;1.17;;;;;;;3.62;80.11;99749.78;5065685;28;20024;-74
2022/11/24 02:30:26;;;;;;;0.60;0.60;;;;;;;3.50;80.65;99758.19;5067089;28;20025;-73
2022/11/24 02:32:52;;;;;;;0.60;0.60;;;;;;;3.88;79.15;99758.56;5065112;28;20443;-74
2022/11/24 02:35:19;;;;;;;0.60;0.60;;;;;;;3.53;80.40;99763.38;5066986;28;20021;-73
2022/11/24 02:37:44;;;;;;;1.52;1.52;;;;;;;3.74;80.30;99755.88;5066436;28;20024;-73
2022/11/24 02:40:10;;;;;;;0.60;0.60;;;;;;;3.79;79.27;99756.75;5066500;28;20082;-73
2022/11/24 02:42:41;;;;;;;0.65;0.65;;;;;;;3.78;79.07;99749.91;5063784;28;20020;-72
2022/11/24 02:45:08;;;;;;;0.77;0.77;;;;;;;3.55;80.46;99748.84;5064884;28;20093;-73
2022/11/24 02:47:34;;;;;;;0.60;0.60;;;;;;;3.71;79.67;99749.00;5065499;28;20040;-73
2022/11/24 02:49:59;;;;;;;0.60;0.60;;;;;;;3.71;79.63;99744.72;5066092;28;20025;-73
2022/11/24 02:52:24;;;;;;;0.90;0.90;;;;;;;3.84;79.50;99744.84;5066280;28;20025;-75
2022/11/24 02:54:50;;;;;;;1.92;1.77;;;;;;;3.77;79.50;99740.50;5066490;28;20025;-74
2022/11/24 02:57:15;;;;;;;0.60;0.60;;;;;;;3.76;79.59;99744.75;5066149;28;20085;-72
2022/11/24 02:59:41;;;;;;;0.60;0.60;;;;;;;3.68;79.84;99742.13;5066278;28;20025;-73
2022/11/24 03:02:06;;;;;;;0.77;0.77;;;;;;;3.90;79.56;99752.59;5066218;28;20358;-75
2022/11/24 03:04:32;;;;;;;1.13;1.13;;;;;;;3.68;79.67;99734.44;5064669;28;20489;-73
2022/11/24 03:06:57;;;;;;;1.48;1.45;;;;;;;3.92;79.39;99732.91;5066131;28;20044;-75
2022/11/24 03:09:22;;;;;;;0.50;0.50;;;;;;;3.86;79.43;99742.28;5065935;28;20453;-74
2022/11/24 03:11:48;;;;;;;0.60;0.60;;;;;;;3.94;78.87;99743.19;5064603;28;20093;-73
2022/11/24 03:14:13;;;;;;;0.60;0.60;;;;;;;3.96;78.99;99746.66;5064627;28;20029;-73
2022/11/24 03:16:39;;;;;;;0.50;0.50;;;;;;;3.99;78.50;99732.97;5065638;28;20028;-77
2022/11/24 03:19:04;;;;;;;0.50;0.50;;;;;;;4.06;78.68;99737.28;5064633;28;20029;-77
2022/11/24 03:21:30;;;;;;;0.60;0.60;;;;;;;4.04;78.26;99755.25;5066136;28;20116;-75
2022/11/24 03:23:55;;;;;;;0.60;0.60;;;;;;;4.04;78.51;99741.56;5066086;28;20081;-78
2022/11/24 03:26:23;;;;;;;0.50;0.50;;;;;;;4.14;78.02;99745.91;5065106;28;20047;-74
2022/11/24 03:28:49;;;;;;;1.38;1.27;;;;;;;4.15;77.83;99747.66;5064583;28;20016;-76
2022/11/24 03:31:14;;;;;;;0.65;0.65;;;;;;;4.17;77.96;99753.66;5064619;28;20029;-72
2022/11/24 03:33:40;;;;;;;0.60;0.60;;;;;;;3.92;78.68;99742.31;5063970;28;20489;-73
2022/11/24 03:36:06;;;;;;;1.23;1.23;;;;;;;3.95;78.88;99752.63;5065445;28;20353;-73
2022/11/24 03:38:32;;;;;;;1.10;1.10;;;;;;;3.92;78.93;99745.75;5065138;28;20032;-72
2022/11/24 03:40:58;;;;;;;0.60;0.60;;;;;;;3.85;79.44;99749.09;5065660;28;20103;-73
2022/11/24 03:43:23;;;;;;;0.45;0.45;;;;;;;3.84;79.70;99761.09;5064017;28;20027;-73
2022/11/24 03:45:49;;;;;;;2.55;2.35;;;;;;;3.93;79.21;99769.75;5065447;28;20078;-73
2022/11/24 03:48:16;;;;;;;6.53;4.15;;;;;;;4.14;78.47;99766.47;5064622;28;20112;-73
2022/11/24 03:50:43;;;;;;;0.50;0.50;;;;;;;4.09;78.33;99756.16;5065234;28;20027;-74
2022/11/24 03:53:08;;;;;;;0.50;0.50;;;;;;;3.88;79.40;99773.97;5064933;28;20084;-73
2022/11/24 03:55:34;;;;;;;0.50;0.50;;;;;;;4.14;78.06;99761.34;5065160;28;20039;-73
2022/11/24 03:58:00;;;;;;;0.50;0.50;;;;;;;4.28;77.42;99764.00;5064937;28;20025;-75
2022/11/24 04:00:25;;;;;;;0.40;0.40;;;;;;;4.02;78.52;99768.94;5064998;28;20028;-73
2022/11/24 04:02:51;;;;;;;0.57;0.57;;;;;;;4.12;78.34;99778.44;5064771;28;20025;-73
2022/11/24 04:05:16;;;;;;;0.50;0.50;;;;;;;3.96;78.94;99769.78;5065066;28;20053;-73
2022/11/24 04:07:41;;;;;;;0.50;0.50;;;;;;;4.18;78.34;99763.09;5064974;28;20021;-76
2022/11/24 04:10:07;;;;;;;0.50;0.50;;;;;;;4.16;77.73;99764.78;5064903;28;20025;-73
2022/11/24 04:12:44;;;;;;;0.60;0.60;;;;;;;4.08;78.39;99775.00;5064738;28;20032;-75
2022/11/24 04:15:18;;;;;;;0.60;0.60;;;;;;;3.91;79.41;99779.13;5064879;28;20021;-74
2022/11/24 04:17:44;;;;;;;0.75;0.75;;;;;;;4.08;78.53;99772.44;5064470;28;20108;-74
2022/11/24 04:20:11;;;;;;;0.57;0.57;;;;;;;4.16;78.13;99739.09;5063324;28;20056;-76
2022/11/24 04:22:36;;;;;;;0.60;0.60;;;;;;;4.14;78.13;99774.19;5064747;28;20047;-74
2022/11/24 04:25:03;;;;;;;7.03;2.60;;;;;;;4.18;78.29;99778.50;5064775;28;20025;-75
2022/11/24 04:27:28;;;;;;;1.30;1.30;;;;;;;4.03;78.89;99778.38;5064523;28;20032;-75
2022/11/24 04:29:54;;;;;;;0.60;0.60;;;;;;;3.93;79.04;99782.59;5064639;28;20024;-74
2022/11/24 04:32:19;;;;;;;0.50;0.50;;;;;;;4.19;78.21;99775.09;5064444;28;20080;-76
2022/11/24 04:34:44;;;;;;;2.72;1.70;;;;;;;3.93;78.77;99782.59;5063154;28;20035;-74
2022/11/24 04:37:10;;;;;;;0.50;0.50;;;;;;;3.96;79.38;99773.19;5064581;28;20485;-74
2022/11/24 04:39:35;;;;;;;1.73;1.13;;;;;;;4.06;78.99;99783.53;5064678;28;20089;-72
2022/11/24 04:42:00;;;;;;;2.00;1.13;;;;;;;4.08;79.00;99777.56;5064496;28;20017;-74
2022/11/24 04:44:26;;;;;;;3.47;3.28;;;;;;;4.06;78.74;99798.94;5064416;28;20135;-74
2022/11/24 04:46:51;;;;;;;0.60;0.60;;;;;;;4.25;78.20;99776.81;5062969;28;20029;-73
2022/11/24 04:49:17;;;;;;;0.82;0.82;;;;;;;4.10;78.55;99790.44;5063149;28;20032;-73
2022/11/24 04:51:43;;;;;;;1.15;1.15;;;;;;;3.94;79.19;99777.47;5064545;28;20029;-75
2022/11/24 04:54:11;;;;;;;0.80;0.80;;;;;;;3.89;79.80;99793.66;5064680;28;20027;-74
2022/11/24 04:56:36;;;;;;;0.50;0.50;;;;;;;3.82;80.17;99785.03;5064645;28;20545;-74
2022/11/24 04:59:01;;;;;;;0.50;0.50;;;;;;;4.04;79.11;99788.66;5063001;28;20020;-74
2022/11/24 05:01:27;;;;;;;1.60;1.50;;;;;;;4.03;79.75;99806.63;5064494;28;20067;-75
2022/11/24 05:03:53;;;;;;;0.60;0.60;;;;;;;4.29;78.13;99785.44;5063080;28;20017;-77
2022/11/24 05:06:19;;;;;;;1.77;1.73;;;;;;;4.11;78.51;99804.13;5067544;28;20469;-71
2022/11/24 05:08:50;;;;;;;1.63;1.58;;;;;;;4.16;78.45;99795.63;5068497;28;20040;-74
2022/11/24 05:11:15;;;;;;;1.40;1.35;;;;;;;4.09;78.80;99804.97;5068700;28;20028;-74
2022/11/24 05:13:40;;;;;;;0.80;0.80;;;;;;;4.32;78.26;99799.16;5068314;28;20025;-74
2022/11/24 05:16:06;;;;;;;0.50;0.50;;;;;;;4.17;78.54;99796.47;5068433;28;20025;-74
2022/11/24 05:18:32;;;;;;;1.67;1.58;;;;;;;4.26;78.22;99814.53;5066725;28;20032;-75
2022/11/24 05:20:58;;;;;;;0.70;0.70;;;;;;;4.08;78.98;99820.38;5068318;28;20092;-73
2022/11/24 05:23:24;;;;;;;0.50;0.50;;;;;;;4.26;78.50;99827.38;5068159;28;20021;-74
2022/11/24 05:25:49;;;;;;;1.02;1.02;;;;;;;4.33;77.95;99825.69;5068407;28;20036;-74
2022/11/24 05:28:15;;;;;;;0.65;0.65;;;;;;;4.33;78.29;99835.97;5066638;28;20120;-70
2022/11/24 05:30:40;;;;;;;2.17;2.05;;;;;;;4.32;78.05;99837.72;5068243;28;20089;-73
2022/11/24 05:33:07;;;;;;;2.03;1.92;;;;;;;4.31;78.02;99840.28;5068093;28;20036;-72
2022/11/24 05:35:35;;;;;;;0.50;0.50;;;;;;;4.31;78.10;99846.25;5068329;28;20385;-72
2022/11/24 05:38:01;;;;;;;1.05;1.05;;;;;;;4.50;77.30;99849.00;5068170;28;20040;-73
2022/11/24 05:40:26;;;;;;;0.55;0.55;;;;;;;4.31;77.71;99853.13;5068198;28;20025;-71
2022/11/24 05:42:52;;;;;;;0.60;0.60;;;;;;;4.22;78.30;99853.88;5067963;28;20081;-72
2022/11/24 05:45:19;;;;;;;0.55;0.55;;;;;;;4.03;79.43;99850.28;5067022;28;20017;-73
2022/11/24 05:47:46;;;;;;;0.60;0.60;;;;;;;4.26;78.38;99853.09;5049799;28;20024;-73
2022/11/24 05:50:13;;;;;;;0.60;0.60;;;;;;;4.34;78.11;99858.28;5068330;28;20099;-73
2022/11/24 05:52:39;;;;;;;0.60;0.60;;;;;;;4.07;79.36;99862.34;5067912;28;20724;-72
2022/11/24 05:55:05;;;;;;;1.83;1.73;;;;;;;4.53;77.75;99858.41;5068316;28;20449;-72
2022/11/24 05:57:31;;;;;;;0.80;0.80;;;;;;;4.47;77.29;99852.38;5068463;28;20024;-73
2022/11/24 05:59:56;;;;;;;4.75;4.30;;;;;;;4.28;77.75;99846.22;5067961;28;20025;-71
2022/11/24 06:02:22;;;;;;;0.77;0.77;;;;;;;4.18;78.67;99855.59;5067519;28;20100;-72
2022/11/24 06:04:47;;;;;;;0.82;0.82;;;;;;;4.46;77.48;99862.66;5068152;28;20334;-72
2022/11/24 06:07:13;;;;;;;0.60;0.60;;;;;;;4.11;78.72;99861.50;5067829;28;20021;-72
2022/11/24 06:09:39;;;;;;;0.57;0.57;;;;;;;4.22;78.95;99859.03;5067516;28;20028;-72
2022/11/24 06:12:06;;;;;;;0.50;0.50;;;;;;;4.16;78.95;99861.53;5067405;28;20021;-72
2022/11/24 06:14:31;;;;;;;0.50;0.50;;;;;;;4.19;78.83;99859.88;5066366;28;20035;-73
2022/11/24 06:16:57;;;;;;;1.70;1.60;;;;;;;4.13;79.71;99872.66;5066804;28;20394;-72
2022/11/24 06:19:22;;;;;;;0.70;0.70;;;;;;;4.28;78.00;99868.53;5067220;28;20083;-72
2022/11/24 06:21:47;;;;;;;0.60;0.60;;;;;;;4.15;78.91;99867.53;5065644;28;20045;-71
2022/11/24 06:24:13;;;;;;;0.82;0.82;;;;;;;4.08;79.28;99874.31;5067118;28;20028;-71
2022/11/24 06:26:39;;;;;;;0.50;0.50;;;;;;;4.13;79.19;99874.38;5067145;28;20040;-71
2022/11/24 06:29:04;;;;;;;1.20;1.20;;;;;;;4.17;79.35;99871.84;5067027;28;20481;-71
2022/11/24 06:31:30;;;;;;;0.60;0.60;;;;;;;4.22;78.91;99887.28;5066725;28;20028;-71
2022/11/24 06:33:55;;;;;;;0.52;0.52;;;;;;;4.07;79.62;99854.63;5066759;28;20021;-73
2022/11/24 06:36:20;;;;;;;0.60;0.60;;;;;;;4.09;79.60;99873.47;5067158;28;20028;-71
2022/11/24 06:38:46;;;;;;;0.93;0.93;;;;;;;4.21;78.61;99865.91;5065177;28;20032;-70
2022/11/24 06:41:14;;;;;;;0.52;0.52;;;;;;;3.96;79.45;99865.66;5066959;28;20029;-73
2022/11/24 06:43:39;;;;;;;2.90;2.70;;;;;;;4.08;79.79;99880.34;5066915;28;20028;-73
2022/11/24 06:46:05;;;;;;;0.75;0.75;;;;;;;4.44;77.71;99890.06;5066927;28;20029;-71
2022/11/24 06:48:32;;;;;;;3.35;3.15;;;;;;;4.47;77.99;99888.38;5066834;28;20041;-72
2022/11/24 06:50:59;;;;;;;1.08;1.08;;;;;;;4.31;78.51;99899.38;5066631;28;20033;-73
2022/11/24 06:53:24;;;;;;;0.60;0.60;;;;;;;4.27;78.45;99890.78;5065163;28;20051;-72
2022/11/24 06:55:50;;;;;;;0.60;0.60;;;;;;;4.07;79.45;99896.56;5066726;28;20033;-72
2022/11/24 06:58:16;;;;;;;0.65;0.65;;;;;;;4.31;78.42;99894.25;5066410;28;20029;-71
2022/11/24 07:00:41;;;;;;;0.60;0.60;;;;;;;4.13;79.45;99900.94;5065264;28;20092;-72
2022/11/24 07:03:13;;;;;;;3.58;3.30;;;;;;;4.09;79.21;99912.00;5066399;28;20032;-73
2022/11/24 07:05:38;;;;;;;0.60;0.60;;;;;;;4.14;79.65;99905.22;5066456;28;20025;-71
2022/11/24 07:08:04;;;;;;;0.60;0.60;;;;;;;3.99;80.36;99905.94;5064689;28;20025;-72
2022/11/24 07:10:29;;;;;;;0.60;0.60;;;;;;;4.12;79.77;99917.16;5064998;28;20374;-72
2022/11/24 07:12:55;;;;;;;0.60;0.60;;;;;;;4.07;79.90;99906.84;5066397;28;20132;-73
2022/11/24 07:15:20;;;;;;;1.05;1.05;;;;;;;4.08;79.88;99911.16;5064964;28;20021;-72
2022/11/24 07:17:45;;;;;;;0.60;0.60;;;;;;;3.89;80.73;99902.41;5065834;28;20025;-72
2022/11/24 07:20:11;;;;;;;0.57;0.57;;;;;;;4.05;80.64;99908.56;5065977;28;20037;-75
2022/11/24 07:22:36;;;;;;;0.50;0.50;;;;;;;4.30;79.28;99907.91;5065787;28;20021;-72
2022/11/24 07:25:04;;;;;;;0.60;0.60;;;;;;;4.42;79.11;99914.91;5066049;28;20046;-74
2022/11/24 07:27:29;;;;;;;5.38;5.03;;;;;;;4.17;79.41;99914.66;5064260;28;20036;-70
2022/11/24 07:29:54;;;;;;;0.50;0.50;;;;;;;4.01;80.48;99919.63;5064477;28;20088;-75
2022/11/24 07:32:20;;;;;;;0.57;0.57;;;;;;;4.16;79.94;99920.63;5065623;28;20028;-75
2022/11/24 07:34:45;;;;;;;0.70;0.70;;;;;;;3.97;80.78;99925.59;5065881;28;20080;-75
2022/11/24 07:37:10;;;;;;;5.22;1.60;;;;;;;3.88;81.37;99920.34;5065652;28;20381;-77
2022/11/24 07:39:36;;;;;;;2.13;1.42;;;;;;;4.04;80.58;99924.78;5065724;28;20033;-77
2022/11/24 07:42:02;;;;;;;0.57;0.57;;;;;;;3.90;81.37;99934.94;5065872;28;20044;-77
2022/11/24 07:44:27;;;;;;;2.55;2.45;;;;;;;3.90;81.42;99937.50;5065724;28;20548;-74
2022/11/24 07:46:53;;;;;;;0.50;0.50;;;;;;;3.84;82.16;99950.25;5065276;28;20024;-72
2022/11/24 07:49:18;;;;;;;0.52;0.52;;;;;;;3.99;81.75;99943.59;5064089;28;20016;-71
2022/11/24 07:51:44;;;;;;;0.55;0.55;;;;;;;4.30;80.36;99951.59;5065422;28;20354;-69
2022/11/24 07:54:10;;;;;;;0.65;0.65;;;;;;;4.15;80.69;99957.47;5065550;28;20033;-69
2022/11/24 07:56:35;;;;;;;1.02;1.02;;;;;;;4.15;81.52;99957.47;5065377;28;20032;-69
2022/11/24 07:59:00;;;;;;;3.33;3.13;;;;;;;4.31;80.61;99968.78;5063962;28;20028;-68
2022/11/24 08:01:26;;;;;;;0.50;0.50;;;;;;;4.32;80.43;99966.22;5065244;28;20032;-70
2022/11/24 08:03:51;;;;;;;0.60;0.60;;;;;;;4.68;78.37;99974.25;5065126;28;20055;-72
2022/11/24 08:06:17;;;;;;;0.60;0.60;;;;;;;4.31;79.75;99961.06;5065143;28;20464;-73
2022/11/24 08:08:43;;;;;;;1.00;1.00;;;;;;;4.27;80.10;99967.00;5065214;28;20055;-71
2022/11/24 08:11:14;;;;;;;0.60;0.60;;;;;;;4.40;79.89;99960.28;5065121;28;20028;-71
2022/11/24 08:13:40;;;;;;;1.25;1.25;;;;;;;4.08;80.83;99961.66;5065163;28;20065;-71
2022/11/24 08:16:08;;;;;;;0.60;0.60;;;;;;;4.04;81.34;99959.91;5065370;28;20028;-72
2022/11/24 08:18:35;;;;;;;0.60;0.60;;;;;;;4.12;81.04;99978.81;5063682;28;20112;-72
2022/11/24 08:21:01;;;;;;;0.70;0.70;;;;;;;4.20;80.49;99972.06;5064933;28;20045;-71
2022/11/24 08:23:27;;;;;;;0.57;0.57;;;;;;;4.14;80.97;99979.72;5065226;28;20017;-71
2022/11/24 08:25:53;;;;;;;0.55;0.55;;;;;;;4.13;80.61;99965.16;5065254;28;20255;-72
2022/11/24 08:28:19;;;;;;;2.53;2.42;;;;;;;4.40;79.55;99973.13;5065287;28;20031;-72
2022/11/24 08:30:44;;;;;;;1.13;1.13;;;;;;;4.39;79.72;99982.56;5066966;28;20025;-72
2022/11/24 08:33:09;;;;;;;0.50;0.50;;;;;;;4.18;80.53;99989.19;5064555;28;20028;-73
2022/11/24 08:35:36;;;;;;;0.60;0.60;;;;;;;4.38;80.54;99987.69;5063247;28;20128;-72
2022/11/24 08:38:03;;;;;;;0.90;0.90;;;;;;;4.21;80.78;99983.22;5064524;28;20043;-72
2022/11/24 08:40:28;;;;;;;2.25;2.15;;;;;;;4.23;80.92;99981.53;5064840;28;20033;-71
2022/11/24 08:43:00;;;;;;;0.60;0.60;;;;;;;4.46;79.83;99989.47;5064724;28;20028;-71
2022/11/24 08:45:26;;;;;;;0.80;0.80;;;;;;;4.50;79.64;99987.81;5064801;28;20028;-73
2022/11/24 08:47:53;;;;;;;0.50;0.50;;;;;;;4.56;79.44;100000.72;5062736;28;20029;-71
2022/11/24 08:50:19;;;;;;;1.08;1.08;;;;;;;4.36;80.12;100002.22;5064606;28;20035;-68
2022/11/24 08:52:44;;;;;;;0.50;0.50;;;;;;;4.41;80.01;100003.16;5064474;28;20021;-70
2022/11/24 08:55:10;;;;;;;0.60;0.60;;;;;;;4.51;79.56;99991.22;5064684;28;20155;-71
2022/11/24 08:57:35;;;;;;;0.60;0.60;;;;;;;4.38;79.80;99991.09;5063501;28;20048;-70
2022/11/24 09:00:02;;;;;;;3.10;2.90;;;;;;;4.28;80.57;99997.84;5064539;28;20029;-70
2022/11/24 09:02:28;;;;;;;0.60;0.60;;;;;;;4.59;79.26;99995.59;5062934;28;20048;-71
2022/11/24 09:04:53;;;;;;;0.50;0.50;;;;;;;4.51;79.59;100001.50;5064641;28;20020;-70
2022/11/24 09:07:18;;;;;;;1.20;1.20;;;;;;;4.58;79.09;99993.03;5064463;28;20484;-70
2022/11/24 09:09:44;;;;;;;0.60;0.60;;;;;;;4.66;78.71;99978.53;5062964;28;20028;-70
2022/11/24 09:12:09;;;;;;;0.50;0.50;;;;;;;4.59;78.80;100000.75;5061627;28;20315;-71
2022/11/24 09:14:35;;;;;;;3.97;3.63;;;;;;;4.47;79.50;99991.19;5061910;28;20027;-71
2022/11/24 09:17:00;;;;;;;0.50;0.50;;;;;;;4.63;78.99;99996.50;5064379;28;20035;-71
2022/11/24 09:19:25;;;;;;;0.70;0.70;;;;;;;4.56;78.93;99998.16;5064258;28;20025;-70
2022/11/24 09:21:51;;;;;;;0.88;0.88;;;;;;;4.45;79.77;100018.63;5064153;28;20041;-71
2022/11/24 09:24:16;;;;;;;0.50;0.50;;;;;;;4.54;79.03;100009.25;5064103;28;20021;-71
2022/11/24 09:26:42;;;;;;;0.50;0.50;;;;;;;4.60;79.21;100019.59;5064112;28;20029;-70
2022/11/24 09:29:08;;;;;;;0.50;0.50;;;;;;;4.56;79.79;100012.69;5063943;28;20048;-71
2022/11/24 09:31:35;;;;;;;0.50;0.50;;;;;;;4.86;78.12;100024.13;5062896;28;20031;-70
2022/11/24 09:34:06;;;;;;;0.60;0.60;;;;;;;4.71;78.45;100025.69;5063968;28;20435;-69
2022/11/24 09:36:32;;;;;;;0.80;0.80;;;;;;;4.56;79.13;100033.28;5062733;28;20496;-70
2022/11/24 09:38:57;;;;;;;0.60;0.60;;;;;;;4.46;79.58;100033.19;5062572;28;20032;-71
2022/11/24 09:41:36;;;;;;;0.98;0.98;;;;;;;4.61;79.28;100031.63;5062519;28;20028;-70
2022/11/24 09:44:20;;;;;;;0.50;0.50;;;;;;;4.71;78.69;100041.13;5064074;28;20025;-70
2022/11/24 09:46:59;;;;;;;0.50;0.50;;;;;;;4.60;79.07;100045.31;5064137;28;20115;-71
2022/11/24 09:49:57;;;;;;;0.80;0.80;;;;;;;4.64;78.65;100047.06;5063971;28;20029;-70
2022/11/24 09:52:37;;;;;;;0.60;0.60;;;;;;;4.67;78.87;100039.38;5045240;28;20090;-70
2022/11/24 09:55:10;;;;;;;0.60;0.60;;;;;;;4.65;78.67;100047.94;5067858;28;20029;-71
2022/11/24 09:57:39;;;;;;;0.60;0.60;;;;;;;4.56;79.49;100043.56;5067706;28;20029;-70
2022/11/24 10:00:12;;;;;;;1.02;1.02;;;;;;;4.69;79.00;100045.41;5067537;28;20017;-70
2022/11/24 10:02:37;;;;;;;0.90;0.88;;;;;;;4.87;77.98;100045.56;5067258;28;20031;-67
2022/11/24 10:05:04;;;;;;;0.50;0.50;;;;;;;4.65;78.88;100045.38;5067420;28;20069;-70
2022/11/24 10:07:36;;;;;;;0.60;0.60;;;;;;;4.87;77.96;100037.84;5067384;28;20501;-70
2022/11/24 10:10:23;;;;;;;2.95;2.78;;;;;;;4.79;78.21;100048.91;5065464;28;20033;-70
2022/11/24 10:12:54;;;;;;;0.60;0.60;;;;;;;4.62;79.00;100045.34;5067058;28;20029;-69
2022/11/24 10:15:45;;;;;;;1.30;1.30;;;;;;;4.56;79.80;100053.84;5067383;28;20029;-70
2022/11/24 10:18:10;;;;;;;0.60;0.60;;;;;;;4.71;79.74;100048.00;5065068;28;20110;-70
2022/11/24 10:20:50;;;;;;;0.88;0.88;;;;;;;5.25;76.55;100051.88;5067175;28;20485;-71
2022/11/24 10:23:40;;;;;;;0.68;0.68;;;;;;;4.76;78.28;100045.47;5067389;28;20017;-71
2022/11/24 10:26:18;;;;;;;6.22;2.10;;;;;;;4.75;78.55;100048.88;5067309;28;20175;-70
2022/11/24 10:28:55;;;;;;;1.05;1.05;;;;;;;4.75;78.33;100044.59;5067144;28;20087;-70
2022/11/24 10:31:34;;;;;;;0.57;0.57;;;;;;;4.80;78.81;100057.50;5067280;28;20080;-70
2022/11/24 10:34:32;;;;;;;4.97;4.57;;;;;;;4.77;78.72;100047.19;5067069;28;20025;-69
2022/11/24 10:37:07;;;;;;;3.58;3.35;;;;;;;4.83;78.17;100052.41;5052003;28;20370;-70
2022/11/24 10:39:49;;;;;;;0.50;0.50;;;;;;;4.77;78.64;100057.47;5066901;28;20024;-70
2022/11/24 10:42:17;;;;;;;;;;;;;;;4.89;78.46;100051.59;5067420;28;20024;-69
2022/11/24 10:44:42;;;;;;;0.55;0.55;;;;;;;4.95;77.42;100052.50;5066923;28;20318;-71
2022/11/24 10:47:21;;;;;;;0.85;0.85;;;;;;;5.20;76.70;100050.16;5067069;28;20635;-69
2022/11/24 10:49:56;;;;;;;0.60;0.60;;;;;;;5.01;77.09;100053.41;5067642;28;20141;-69
2022/11/24 10:52:23;;;;;;;0.50;0.50;;;;;;;5.12;76.65;100054.38;5067687;28;20032;-69
2022/11/24 10:55:00;;;;;;;0.50;0.50;;;;;;;5.19;76.80;100050.16;5066501;28;20025;-70
2022/11/24 10:57:29;;;;;;;1.05;1.05;;;;;;;4.91;77.78;100053.34;5067261;28;20032;-68
2022/11/24 10:59:55;;;;;;;0.55;0.55;;;;;;;4.90;78.18;100040.47;5066984;28;20032;-69
2022/11/24 11:02:38;;;;;;;0.82;0.82;;;;;;;5.05;77.40;100056.03;5065668;28;20021;-70
2022/11/24 11:05:33;;;;;;;0.93;0.93;;;;;;;5.21;76.14;100051.00;5067444;28;20042;-70
2022/11/24 11:08:12;;;;;;;0.57;0.57;;;;;;;4.96;77.76;100063.66;5066716;28;20092;-69
2022/11/24 11:10:38;;;;;;;0.60;0.60;;;;;;;5.13;77.02;100050.94;5064986;28;20036;-68
2022/11/24 11:13:27;;;;;;;0.55;0.55;;;;;;;5.11;77.03;100055.22;5066400;28;20029;-70
2022/11/24 11:15:55;;;;;;;0.60;0.60;;;;;;;5.13;76.94;100068.94;5058293;28;20060;-69
2022/11/24 11:18:21;;;;;;;0.60;0.60;;;;;;;5.23;76.59;100064.75;5064474;28;20407;-70
2022/11/24 11:20:55;;;;;;;0.60;0.60;;;;;;;5.19;77.19;100047.56;5066349;28;20049;-70
2022/11/24 11:23:26;;;;;;;1.40;1.40;;;;;;;5.23;76.66;100051.88;5064460;28;20021;-69
2022/11/24 11:26:23;;;;;;;0.50;0.50;;;;;;;5.25;76.46;100054.47;5065971;28;20057;-70
2022/11/24 11:29:03;;;;;;;7.22;2.65;;;;;;;5.40;75.96;100058.88;5064800;28;20055;-68
2022/11/24 11:31:32;;;;;;;1.30;1.30;;;;;;;5.24;75.87;100063.88;5065769;28;20024;-70
2022/11/24 11:33:58;;;;;;;0.60;0.60;;;;;;;5.10;77.09;100068.94;5065798;28;20078;-69
2022/11/24 11:36:23;;;;;;;0.60;0.60;;;;;;;5.04;77.46;100056.88;5066131;28;20029;-70
2022/11/24 11:38:49;;;;;;;0.70;0.70;;;;;;;5.23;76.97;100054.44;5065813;28;20048;-70
2022/11/24 11:41:43;;;;;;;0.60;0.60;;;;;;;5.37;76.25;100067.41;5065827;28;20032;-70